Time;durP1;ratioP1;P1;durP2;ratioP2;P2;SDS_P1;SDS_P2;PMS_P1;PMS_P2;Temp;Humidity;BMP_temperature;BMP_pressure;BME280_temperature;BME280_humidity;BME280_pressure;Samples;Min_cycle;Max_cycle;Signal;HPM_P1;HPM_P2
2022/01/01 00:01:25;;;;;;;19.17;13.30;;;13.60;99.90;;;;;;5028092;28;20446;-79
2022/01/01 00:03:53;;;;;;;22.00;12.20;;;13.50;99.90;;;;;;5020368;28;20824;-80
2022/01/01 00:06:20;;;;;;;16.23;12.30;;;13.50;99.90;;;;;;5037517;28;20471;-79
2022/01/01 00:08:47;;;;;;;22.23;13.00;;;13.50;99.90;;;;;;5037318;28;20529;-79
2022/01/01 00:11:14;;;;;;;19.37;12.70;;;13.50;99.90;;;;;;5033924;28;20454;-79
2022/01/01 00:13:41;;;;;;;16.97;11.30;;;13.50;99.90;;;;;;5023135;28;20499;-79
2022/01/01 00:16:09;;;;;;;24.60;11.67;;;13.50;99.90;;;;;;5029987;28;20450;-79
2022/01/01 00:18:36;;;;;;;19.63;11.60;;;13.50;99.90;;;;;;5026320;28;20441;-79
2022/01/01 00:21:07;;;;;;;21.53;12.27;;;13.50;99.90;;;;;;5023554;28;20447;-79
2022/01/01 00:23:34;;;;;;;19.60;11.13;;;13.50;99.90;;;;;;5027064;28;20480;-80
2022/01/01 00:26:01;;;;;;;13.90;9.80;;;13.50;99.90;;;;;;5027386;28;20447;-79
2022/01/01 00:28:30;;;;;;;22.00;11.47;;;13.60;99.90;;;;;;5024956;28;20482;-79
2022/01/01 00:30:57;;;;;;;18.37;9.57;;;13.50;99.90;;;;;;5032209;28;20446;-79
2022/01/01 00:33:25;;;;;;;16.47;8.10;;;13.50;99.90;;;;;;5022949;28;20495;-79
2022/01/01 00:35:52;;;;;;;13.03;8.80;;;13.50;99.90;;;;;;5028702;28;20451;-79
2022/01/01 00:38:20;;;;;;;20.50;8.90;;;13.40;99.90;;;;;;5028600;28;20478;-80
2022/01/01 00:40:47;;;;;;;13.50;8.63;;;13.40;99.90;;;;;;5030056;28;20459;-79
2022/01/01 00:43:17;;;;;;;14.10;8.30;;;13.30;99.90;;;;;;5033088;28;20571;-79
2022/01/01 00:45:44;;;;;;;14.10;7.93;;;13.50;99.90;;;;;;5030837;28;20821;-79
2022/01/01 00:48:10;;;;;;;14.23;8.40;;;13.50;99.90;;;;;;5026219;28;20549;-78
2022/01/01 00:50:37;;;;;;;14.37;8.97;;;13.40;99.90;;;;;;5025712;28;20453;-79
2022/01/01 00:53:04;;;;;;;17.47;9.53;;;13.40;99.90;;;;;;5027994;28;20481;-79
2022/01/01 00:55:33;;;;;;;18.43;8.63;;;13.40;99.90;;;;;;5031643;28;20464;-78
2022/01/01 00:58:01;;;;;;;12.17;7.93;;;13.50;99.90;;;;;;5034007;28;20442;-78
2022/01/01 01:00:28;;;;;;;13.40;7.10;;;13.50;99.90;;;;;;5027933;28;20441;-79
2022/01/01 01:02:54;;;;;;;18.07;8.30;;;13.40;99.90;;;;;;5033538;28;20654;-79
2022/01/01 01:05:21;;;;;;;17.70;9.00;;;13.50;99.90;;;;;;5021466;28;20452;-79
2022/01/01 01:07:48;;;;;;;15.13;7.60;;;13.50;99.90;;;;;;5037344;28;21040;-79
2022/01/01 01:10:15;;;;;;;13.33;8.17;;;13.50;99.90;;;;;;5027062;28;20448;-75
2022/01/01 01:12:45;;;;;;;17.83;9.50;;;13.40;99.90;;;;;;5024847;28;20487;-78
2022/01/01 01:15:17;;;;;;;11.77;8.10;;;13.40;99.90;;;;;;5038492;28;20520;-77
2022/01/01 01:17:48;;;;;;;18.30;11.03;;;13.50;99.90;;;;;;5038724;28;20791;-78
2022/01/01 01:20:15;;;;;;;17.17;9.57;;;13.50;99.90;;;;;;5031047;28;20449;-77
2022/01/01 01:22:42;;;;;;;18.03;9.20;;;13.40;99.90;;;;;;5036415;28;20970;-77
2022/01/01 01:25:10;;;;;;;16.43;8.80;;;13.40;99.90;;;;;;5028556;28;20474;-78
2022/01/01 01:27:37;;;;;;;13.83;8.30;;;13.40;99.90;;;;;;5029078;28;20461;-78
2022/01/01 01:30:09;;;;;;;24.30;10.97;;;13.50;99.90;;;;;;5036287;28;20463;-77
2022/01/01 01:32:37;;;;;;;16.67;10.53;;;13.50;99.90;;;;;;5029151;28;20858;-77
2022/01/01 01:35:04;;;;;;;19.00;10.07;;;13.40;99.90;;;;;;5036320;28;20479;-78
2022/01/01 01:37:30;;;;;;;19.77;9.70;;;13.40;99.90;;;;;;5035781;28;20495;-77
2022/01/01 01:39:58;;;;;;;19.07;8.13;;;13.50;99.90;;;;;;5036091;28;20923;-78
2022/01/01 01:42:27;;;;;;;13.50;8.60;;;13.50;99.90;;;;;;5035564;28;20451;-77
2022/01/01 01:44:55;;;;;;;14.60;9.17;;;13.50;99.90;;;;;;5017731;28;20563;-78
2022/01/01 01:47:29;;;;;;;17.60;8.10;;;13.40;99.90;;;;;;5035486;28;20498;-78
2022/01/01 01:49:57;;;;;;;16.20;9.10;;;13.40;99.90;;;;;;5033571;28;21003;-78
2022/01/01 01:52:25;;;;;;;17.47;9.00;;;13.40;99.90;;;;;;5022317;28;20934;-78
2022/01/01 01:54:52;;;;;;;22.00;8.97;;;13.50;99.90;;;;;;5023562;28;20576;-78
2022/01/01 01:57:20;;;;;;;15.23;8.73;;;13.50;99.90;;;;;;5036439;28;20455;-77
2022/01/01 01:59:47;;;;;;;18.43;9.10;;;13.40;99.90;;;;;;5032842;28;20981;-78
2022/01/01 02:02:14;;;;;;;14.30;8.23;;;13.40;99.90;;;;;;5023240;28;20463;-77
2022/01/01 02:04:43;;;;;;;17.20;8.43;;;13.50;99.90;;;;;;5031930;28;20502;-76
2022/01/01 02:07:10;;;;;;;17.10;10.47;;;13.50;99.90;;;;;;5028996;28;20539;-77
2022/01/01 02:09:38;;;;;;;14.53;8.07;;;13.40;99.90;;;;;;5035899;28;20562;-78
2022/01/01 02:12:06;;;;;;;17.73;8.50;;;13.40;99.90;;;;;;5035375;28;20459;-78
2022/01/01 02:14:54;;;;;;;16.80;10.23;;;13.40;99.90;;;;;;5034248;28;20499;-78
2022/01/01 02:17:24;;;;;;;23.23;10.00;;;13.50;99.90;;;;;;5030446;28;20556;-77
2022/01/01 02:19:59;;;;;;;15.47;8.43;;;13.50;99.90;;;;;;5025930;28;20458;-78
2022/01/01 02:22:36;;;;;;;14.20;7.77;;;13.40;99.90;;;;;;5035183;28;20460;-77
2022/01/01 02:25:05;;;;;;;13.83;8.70;;;13.50;99.90;;;;;;5034343;28;20485;-77
2022/01/01 02:27:31;;;;;;;19.90;8.57;;;13.50;99.90;;;;;;5035105;28;20457;-77
2022/01/01 02:29:58;;;;;;;17.83;8.40;;;13.50;99.90;;;;;;5035476;28;20457;-78
2022/01/01 02:32:25;;;;;;;14.90;7.20;;;13.50;99.90;;;;;;5038830;28;20457;-77
2022/01/01 02:34:52;;;;;;;17.40;8.50;;;13.50;99.90;;;;;;5035004;28;20469;-77
2022/01/01 02:37:19;;;;;;;12.30;9.07;;;13.50;99.90;;;;;;5033130;28;20456;-77
2022/01/01 02:39:47;;;;;;;16.63;8.53;;;13.40;99.90;;;;;;5035730;28;20463;-77
2022/01/01 02:42:18;;;;;;;19.07;9.00;;;13.40;99.90;;;;;;5034862;28;20459;-78
2022/01/01 02:44:45;;;;;;;15.60;7.87;;;13.40;99.90;;;;;;5035326;28;20518;-78
2022/01/01 02:47:12;;;;;;;17.90;9.07;;;13.40;99.90;;;;;;5045625;28;20451;-77
2022/01/01 02:49:40;;;;;;;14.77;8.33;;;13.40;99.90;;;;;;5054120;28;20459;-78
2022/01/01 02:52:06;;;;;;;19.27;9.17;;;13.50;99.90;;;;;;5045293;28;20453;-78
2022/01/01 02:54:33;;;;;;;16.23;9.70;;;13.40;99.90;;;;;;5050818;28;20493;-78
2022/01/01 02:57:01;;;;;;;14.23;10.03;;;13.40;99.90;;;;;;5055483;28;20445;-78
2022/01/01 02:59:28;;;;;;;18.80;11.10;;;13.40;99.90;;;;;;5037473;28;20461;-78
2022/01/01 03:01:55;;;;;;;19.17;11.13;;;13.40;99.90;;;;;;5054700;28;20452;-78
2022/01/01 03:04:22;;;;;;;22.63;10.60;;;13.40;99.90;;;;;;5039792;28;20475;-78
2022/01/01 03:06:53;;;;;;;13.83;10.13;;;13.40;99.90;;;;;;5043283;28;20454;-78
2022/01/01 03:09:20;;;;;;;17.97;10.30;;;13.40;99.90;;;;;;5034265;28;20482;-78
2022/01/01 03:11:47;;;;;;;20.53;10.77;;;13.50;99.90;;;;;;5033768;28;20822;-78
2022/01/01 03:14:17;;;;;;;18.03;8.53;;;13.50;99.90;;;;;;5037055;28;20499;-78
2022/01/01 03:16:44;;;;;;;23.23;10.90;;;13.50;99.90;;;;;;5053144;28;20456;-78
2022/01/01 03:19:11;;;;;;;18.50;10.50;;;13.50;99.90;;;;;;5039067;28;20458;-77
2022/01/01 03:21:38;;;;;;;17.63;10.60;;;13.50;99.90;;;;;;5050353;28;20462;-77
2022/01/01 03:24:06;;;;;;;17.13;9.60;;;13.50;99.90;;;;;;5037644;28;20468;-76
2022/01/01 03:26:32;;;;;;;21.17;11.23;;;13.50;99.90;;;;;;5035030;28;20868;-77
2022/01/01 03:28:59;;;;;;;16.50;9.57;;;13.50;99.90;;;;;;5036456;28;20500;-78
2022/01/01 03:31:27;;;;;;;21.50;10.83;;;13.50;99.90;;;;;;5034322;28;20467;-77
2022/01/01 03:33:57;;;;;;;18.37;10.53;;;13.50;99.90;;;;;;5034978;28;20497;-78
2022/01/01 03:36:24;;;;;;;21.83;10.37;;;13.50;99.90;;;;;;5032984;28;20463;-78
2022/01/01 03:38:51;;;;;;;18.10;11.03;;;13.50;99.90;;;;;;5039234;28;20443;-78
2022/01/01 03:41:18;;;;;;;22.20;10.77;;;13.50;99.90;;;;;;5033868;28;20456;-78
2022/01/01 03:43:45;;;;;;;19.17;10.83;;;13.50;99.90;;;;;;5038133;28;20476;-78
2022/01/01 03:46:12;;;;;;;15.43;10.63;;;13.50;99.90;;;;;;5053191;28;20460;-77
2022/01/01 03:48:40;;;;;;;14.10;9.90;;;13.50;99.90;;;;;;5033918;28;20907;-76
2022/01/01 03:51:07;;;;;;;15.93;10.20;;;13.50;99.90;;;;;;5013547;28;20458;-78
2022/01/01 03:53:34;;;;;;;17.30;11.00;;;13.50;99.90;;;;;;5024636;28;20487;-78
2022/01/01 03:56:01;;;;;;;19.43;11.80;;;13.50;99.90;;;;;;5053665;28;20453;-78
2022/01/01 03:58:27;;;;;;;16.07;10.70;;;13.50;99.90;;;;;;5045483;28;20492;-77
2022/01/01 04:00:55;;;;;;;17.97;9.00;;;13.50;99.90;;;;;;5032065;28;20455;-78
2022/01/01 04:03:22;;;;;;;15.73;9.50;;;13.50;99.90;;;;;;5035515;28;20477;-77
2022/01/01 04:05:50;;;;;;;19.50;10.53;;;13.50;99.90;;;;;;5033682;28;20455;-78
2022/01/01 04:08:17;;;;;;;15.03;9.33;;;13.50;99.90;;;;;;5048412;28;20462;-78
2022/01/01 04:10:44;;;;;;;16.97;10.43;;;13.60;99.90;;;;;;5045785;28;20455;-78
2022/01/01 04:13:11;;;;;;;17.10;9.60;;;13.50;99.90;;;;;;5038168;28;20490;-77
2022/01/01 04:15:40;;;;;;;18.43;10.77;;;13.50;99.90;;;;;;5054736;28;20453;-77
2022/01/01 04:18:10;;;;;;;17.70;10.40;;;13.50;99.90;;;;;;5036497;28;20461;-78
2022/01/01 04:20:37;;;;;;;15.40;10.77;;;13.50;99.90;;;;;;5030196;28;20462;-78
2022/01/01 04:23:09;;;;;;;20.93;10.30;;;13.50;99.90;;;;;;5051606;28;20463;-78
2022/01/01 04:25:37;;;;;;;16.10;8.90;;;13.50;99.90;;;;;;5038285;28;20523;-79
2022/01/01 04:28:05;;;;;;;19.13;9.70;;;13.50;99.90;;;;;;5035001;28;20817;-78
2022/01/01 04:30:32;;;;;;;19.83;9.87;;;13.50;99.90;;;;;;5033756;28;21013;-78
2022/01/01 04:32:59;;;;;;;19.70;10.13;;;13.50;99.90;;;;;;5035177;28;20456;-79
2022/01/01 04:35:26;;;;;;;21.67;10.20;;;13.60;99.90;;;;;;5043074;28;20454;-78
2022/01/01 04:37:53;;;;;;;16.40;10.07;;;13.50;99.90;;;;;;5044426;28;20460;-79
2022/01/01 04:40:21;;;;;;;17.27;9.60;;;13.50;99.90;;;;;;5034790;28;20460;-78
2022/01/01 04:42:48;;;;;;;20.03;11.00;;;13.50;99.90;;;;;;5034475;28;20464;-78
2022/01/01 04:45:15;;;;;;;16.43;10.73;;;13.40;99.90;;;;;;5039132;28;20974;-78
2022/01/01 04:47:42;;;;;;;13.80;8.77;;;13.50;99.90;;;;;;5036442;28;20459;-78
2022/01/01 04:50:09;;;;;;;17.13;9.70;;;13.50;99.90;;;;;;5037694;28;20450;-78
2022/01/01 04:52:36;;;;;;;25.50;9.83;;;13.50;99.90;;;;;;5055472;28;20450;-78
2022/01/01 04:55:03;;;;;;;17.03;8.70;;;13.50;99.90;;;;;;5052608;28;20493;-78
2022/01/01 04:57:31;;;;;;;14.83;9.00;;;13.50;99.90;;;;;;5035128;28;20466;-78
2022/01/01 04:59:58;;;;;;;16.73;9.07;;;13.50;99.90;;;;;;5045573;28;20456;-78
2022/01/01 05:02:26;;;;;;;15.20;8.57;;;13.50;99.90;;;;;;5033168;28;20468;-78
2022/01/01 05:04:53;;;;;;;15.87;8.20;;;13.50;99.90;;;;;;5039003;28;20558;-78
2022/01/01 05:07:20;;;;;;;16.87;8.90;;;13.50;99.90;;;;;;5055699;28;20465;-79
2022/01/01 05:09:47;;;;;;;15.97;8.17;;;13.50;99.90;;;;;;5039010;28;20459;-78
2022/01/01 05:12:13;;;;;;;19.40;9.47;;;13.50;99.90;;;;;;5032795;28;20456;-78
2022/01/01 05:14:41;;;;;;;14.87;8.27;;;13.50;99.90;;;;;;5033404;28;20577;-78
2022/01/01 05:17:08;;;;;;;12.60;7.10;;;13.50;99.90;;;;;;5034202;28;20455;-79
2022/01/01 05:19:35;;;;;;;11.33;6.80;;;13.50;99.90;;;;;;5034320;28;20457;-78
2022/01/01 05:22:02;;;;;;;12.40;7.53;;;13.50;99.90;;;;;;5033281;28;20453;-78
2022/01/01 05:24:29;;;;;;;18.03;7.47;;;13.50;99.90;;;;;;5033426;28;20466;-79
2022/01/01 05:26:55;;;;;;;18.10;7.33;;;13.50;99.90;;;;;;5034192;28;20954;-78
2022/01/01 05:29:22;;;;;;;13.87;6.27;;;13.50;99.90;;;;;;5033878;28;20453;-78
2022/01/01 05:31:50;;;;;;;16.40;7.00;;;13.50;99.90;;;;;;5032598;28;20463;-78
2022/01/01 05:34:17;;;;;;;14.90;6.60;;;13.50;99.90;;;;;;5029918;28;20812;-78
2022/01/01 05:36:44;;;;;;;13.33;6.97;;;13.50;99.90;;;;;;5029353;28;20455;-78
2022/01/01 05:39:11;;;;;;;13.70;6.70;;;13.50;99.90;;;;;;5020260;28;20459;-78
2022/01/01 05:41:37;;;;;;;11.27;6.33;;;13.50;99.90;;;;;;5022247;28;20461;-78
2022/01/01 05:44:05;;;;;;;11.80;5.83;;;13.40;99.90;;;;;;5019103;28;20479;-78
2022/01/01 05:46:32;;;;;;;11.00;6.13;;;13.40;99.90;;;;;;5013521;28;20458;-78
2022/01/01 05:49:00;;;;;;;9.53;5.50;;;13.40;99.90;;;;;;5025241;28;20469;-78
2022/01/01 05:51:28;;;;;;;9.90;5.67;;;13.40;99.90;;;;;;5031917;28;20461;-78
2022/01/01 05:53:55;;;;;;;9.80;6.03;;;13.50;99.90;;;;;;5017102;28;20495;-78
2022/01/01 05:56:21;;;;;;;11.83;5.50;;;13.50;99.90;;;;;;5033578;28;20456;-78
2022/01/01 05:58:48;;;;;;;13.70;5.97;;;13.50;99.90;;;;;;5026691;28;20473;-78
2022/01/01 06:01:15;;;;;;;11.33;5.87;;;13.50;99.90;;;;;;5036172;28;20457;-78
2022/01/01 06:03:42;;;;;;;10.67;5.23;;;13.50;99.90;;;;;;5038585;28;20483;-78
2022/01/01 06:06:10;;;;;;;11.20;5.90;;;13.50;99.90;;;;;;5036601;28;20452;-79
2022/01/01 06:08:37;;;;;;;11.00;6.00;;;13.50;99.90;;;;;;5037230;28;20495;-77
2022/01/01 06:11:03;;;;;;;16.97;6.10;;;13.50;99.90;;;;;;5035513;28;20813;-78
2022/01/01 06:13:30;;;;;;;9.80;5.50;;;13.50;99.90;;;;;;5045440;28;20479;-78
2022/01/01 06:15:57;;;;;;;8.60;5.03;;;13.60;99.90;;;;;;5035814;28;20475;-77
2022/01/01 06:18:24;;;;;;;11.43;5.63;;;13.50;99.90;;;;;;5034880;28;20466;-78
2022/01/01 06:20:50;;;;;;;11.80;4.93;;;13.40;99.90;;;;;;5036321;28;20459;-78
2022/01/01 06:23:19;;;;;;;9.07;5.00;;;13.40;99.90;;;;;;5039270;28;20481;-79
2022/01/01 06:25:45;;;;;;;10.13;5.20;;;13.50;99.90;;;;;;5035974;28;20454;-77
2022/01/01 06:28:12;;;;;;;10.77;5.90;;;13.50;99.90;;;;;;5036107;28;20458;-78
2022/01/01 06:30:39;;;;;;;11.27;5.90;;;13.50;99.90;;;;;;5035261;28;20451;-78
2022/01/01 06:33:17;;;;;;;10.17;5.87;;;13.40;99.90;;;;;;5039822;28;20456;-78
2022/01/01 06:35:45;;;;;;;10.30;5.30;;;13.50;99.90;;;;;;5018722;28;20513;-78
2022/01/01 06:38:13;;;;;;;15.73;5.93;;;13.50;99.90;;;;;;5035775;28;20479;-78
2022/01/01 06:40:42;;;;;;;10.60;5.17;;;13.50;99.90;;;;;;5045826;28;20462;-77
2022/01/01 06:43:10;;;;;;;10.07;5.23;;;13.50;99.90;;;;;;5036811;28;20485;-78
2022/01/01 06:45:38;;;;;;;9.20;5.50;;;13.50;99.90;;;;;;5036220;28;20820;-78
2022/01/01 06:48:05;;;;;;;11.80;5.90;;;13.50;99.90;;;;;;5035928;28;20467;-78
2022/01/01 06:50:32;;;;;;;11.87;6.27;;;13.50;99.90;;;;;;5042120;28;20455;-78
2022/01/01 06:52:59;;;;;;;12.23;5.73;;;13.50;99.90;;;;;;5040940;28;20462;-80
2022/01/01 06:55:26;;;;;;;15.07;5.10;;;13.50;99.90;;;;;;5035190;28;20859;-78
2022/01/01 06:57:54;;;;;;;13.07;5.80;;;13.50;99.90;;;;;;5034262;28;20460;-79
2022/01/01 07:00:22;;;;;;;15.50;4.87;;;13.50;99.90;;;;;;5033876;28;20835;-79
2022/01/01 07:02:49;;;;;;;7.90;4.57;;;13.50;99.90;;;;;;5036532;28;20467;-80
2022/01/01 07:05:17;;;;;;;8.93;5.13;;;13.50;99.90;;;;;;5035804;28;20521;-78
2022/01/01 07:07:44;;;;;;;9.80;4.70;;;13.50;99.90;;;;;;5033911;28;20466;-79
2022/01/01 07:10:12;;;;;;;9.03;4.97;;;13.50;99.90;;;;;;5034810;28;20452;-79
2022/01/01 07:12:40;;;;;;;7.50;4.60;;;13.50;99.90;;;;;;5043353;28;20462;-78
2022/01/01 07:15:10;;;;;;;12.07;4.73;;;13.40;99.90;;;;;;5046104;28;20497;-80
2022/01/01 07:17:37;;;;;;;8.87;4.50;;;13.50;99.90;;;;;;5040789;28;20456;-79
2022/01/01 07:20:05;;;;;;;12.30;4.20;;;13.50;99.90;;;;;;5034233;28;20456;-79
2022/01/01 07:22:32;;;;;;;8.80;4.27;;;13.50;99.90;;;;;;5033671;28;20453;-79
2022/01/01 07:24:59;;;;;;;7.60;3.57;;;13.50;99.90;;;;;;5036437;28;20468;-80
2022/01/01 07:27:26;;;;;;;8.20;3.40;;;13.50;99.90;;;;;;5031891;28;20453;-77
2022/01/01 07:29:52;;;;;;;7.97;3.60;;;13.60;99.90;;;;;;5034309;28;20456;-80
2022/01/01 07:32:21;;;;;;;6.17;3.57;;;13.60;99.90;;;;;;5033343;28;20463;-79
2022/01/01 07:34:48;;;;;;;9.30;3.83;;;13.60;99.90;;;;;;5035120;28;20488;-78
2022/01/01 07:37:15;;;;;;;11.33;4.17;;;13.60;99.90;;;;;;5034743;28;20461;-77
2022/01/01 07:39:42;;;;;;;6.37;3.83;;;13.60;99.90;;;;;;5036573;28;20453;-79
2022/01/01 07:42:09;;;;;;;14.87;4.40;;;13.60;99.90;;;;;;5033675;28;20486;-80
2022/01/01 07:44:36;;;;;;;7.43;4.27;;;13.50;99.90;;;;;;5032664;28;20472;-78
2022/01/01 07:47:03;;;;;;;6.23;3.20;;;13.60;99.90;;;;;;5031646;28;20868;-78
2022/01/01 07:49:31;;;;;;;8.37;4.37;;;13.60;99.90;;;;;;5040161;28;20452;-79
2022/01/01 07:51:58;;;;;;;7.47;3.80;;;13.60;99.90;;;;;;5037657;28;20819;-78
2022/01/01 07:54:24;;;;;;;5.90;2.60;;;13.60;99.90;;;;;;5038989;28;20570;-79
2022/01/01 07:56:51;;;;;;;11.27;3.50;;;13.60;99.90;;;;;;5030558;28;20822;-77
2022/01/01 07:59:18;;;;;;;9.50;3.27;;;13.60;99.90;;;;;;5035863;28;20452;-77
2022/01/01 08:01:45;;;;;;;8.47;3.87;;;13.70;99.90;;;;;;5037122;28;20560;-80
2022/01/01 08:04:12;;;;;;;7.20;3.27;;;13.70;99.90;;;;;;5038071;28;20996;-80
2022/01/01 08:06:40;;;;;;;9.03;3.73;;;13.70;99.90;;;;;;5036626;28;20455;-78
2022/01/01 08:09:07;;;;;;;11.77;5.37;;;13.70;99.90;;;;;;5034884;28;20459;-78
2022/01/01 08:11:33;;;;;;;10.50;3.60;;;13.70;99.90;;;;;;5041325;28;20454;-80
2022/01/01 08:14:00;;;;;;;7.43;3.33;;;13.80;99.90;;;;;;5036158;28;20474;-83
2022/01/01 08:16:27;;;;;;;9.40;3.43;;;13.70;99.90;;;;;;5035060;28;20462;-79
2022/01/01 08:18:54;;;;;;;17.37;3.80;;;13.80;99.90;;;;;;5041466;28;20450;-80
2022/01/01 08:21:20;;;;;;;9.37;4.17;;;13.70;99.90;;;;;;5041987;28;20451;-80
2022/01/01 08:23:49;;;;;;;5.87;2.87;;;13.80;99.90;;;;;;5039743;28;20498;-81
2022/01/01 08:26:15;;;;;;;9.50;3.57;;;13.80;99.90;;;;;;5042716;28;20445;-80
2022/01/01 08:28:42;;;;;;;9.33;3.47;;;13.80;99.90;;;;;;5038230;28;20479;-81
2022/01/01 08:31:09;;;;;;;9.80;2.60;;;13.80;99.90;;;;;;5034306;28;20449;-80
2022/01/01 08:33:37;;;;;;;8.33;3.73;;;13.90;99.90;;;;;;5035420;28;20486;-80
2022/01/01 08:36:04;;;;;;;5.00;2.60;;;13.80;99.90;;;;;;5037608;28;21048;-80
2022/01/01 08:38:31;;;;;;;13.27;3.07;;;13.90;99.90;;;;;;5034068;28;20950;-80
2022/01/01 08:41:01;;;;;;;6.43;2.73;;;13.90;99.90;;;;;;5037894;28;20453;-80
2022/01/01 08:43:29;;;;;;;7.70;3.40;;;13.90;99.90;;;;;;5037784;28;20478;-80
2022/01/01 08:45:56;;;;;;;7.43;2.70;;;13.80;99.90;;;;;;5041122;28;20454;-81
2022/01/01 08:48:23;;;;;;;8.97;3.40;;;13.90;99.90;;;;;;5039397;28;20484;-81
2022/01/01 08:50:50;;;;;;;7.90;2.90;;;13.90;99.90;;;;;;5041536;28;20455;-80
2022/01/01 08:53:17;;;;;;;10.43;3.50;;;13.90;99.90;;;;;;5039141;28;20481;-80
2022/01/01 08:55:44;;;;;;;7.23;2.60;;;13.90;99.90;;;;;;5044504;28;20491;-81
2022/01/01 08:58:12;;;;;;;4.10;2.33;;;13.90;99.90;;;;;;5037990;28;20457;-81
2022/01/01 09:00:39;;;;;;;8.33;3.50;;;13.90;99.90;;;;;;5039318;28;20462;-80
2022/01/01 09:03:05;;;;;;;8.03;2.77;;;13.90;99.90;;;;;;5039215;28;20472;-81
2022/01/01 09:05:32;;;;;;;6.77;3.27;;;13.80;99.90;;;;;;5043617;28;20464;-81
2022/01/01 09:07:59;;;;;;;10.33;3.00;;;13.90;99.90;;;;;;5042135;28;20537;-81
2022/01/01 09:10:26;;;;;;;7.53;2.67;;;14.10;99.90;;;;;;5035668;28;20549;-80
2022/01/01 09:12:53;;;;;;;7.50;2.70;;;14.30;99.90;;;;;;5040676;28;20458;-81
2022/01/01 09:15:21;;;;;;;6.63;2.80;;;14.50;99.90;;;;;;5036191;28;20492;-81
2022/01/01 09:17:48;;;;;;;7.53;2.63;;;14.60;99.90;;;;;;5035681;28;20547;-80
2022/01/01 09:20:15;;;;;;;5.77;2.70;;;14.80;99.90;;;;;;5025108;28;20445;-79
2022/01/01 09:22:42;;;;;;;3.73;1.90;;;14.70;99.90;;;;;;5042889;28;20455;-79
2022/01/01 09:25:09;;;;;;;5.23;2.30;;;14.80;99.90;;;;;;5038513;28;20479;-80
2022/01/01 09:27:35;;;;;;;7.07;2.47;;;14.90;99.90;;;;;;5039478;28;20451;-79
2022/01/01 09:30:02;;;;;;;6.23;2.07;;;15.20;99.90;;;;;;5038118;28;20505;-77
2022/01/01 09:32:30;;;;;;;5.20;2.17;;;15.20;99.90;;;;;;5056227;28;20465;-79
2022/01/01 09:34:57;;;;;;;4.60;2.20;;;15.10;99.90;;;;;;5048520;28;20495;-79
2022/01/01 09:37:25;;;;;;;5.70;2.20;;;15.30;99.90;;;;;;5058230;28;20462;-80
2022/01/01 09:39:51;;;;;;;4.90;2.07;;;15.30;99.90;;;;;;5063347;28;21005;-80
2022/01/01 09:42:21;;;;;;;7.70;2.60;;;15.20;99.90;;;;;;5046726;28;20966;-81
2022/01/01 09:44:48;;;;;;;5.00;2.43;;;15.00;99.90;;;;;;5045220;28;20480;-80
2022/01/01 09:47:16;;;;;;;7.77;2.30;;;14.90;99.90;;;;;;5045211;28;20455;-79
2022/01/01 09:49:44;;;;;;;4.97;2.57;;;14.90;99.90;;;;;;5045085;28;20451;-81
2022/01/01 09:52:14;;;;;;;5.10;2.23;;;15.00;99.90;;;;;;5059995;28;20457;-81
2022/01/01 09:54:41;;;;;;;5.40;2.27;;;14.90;99.90;;;;;;5054371;28;20480;-81
2022/01/01 09:57:10;;;;;;;9.20;2.60;;;14.90;99.90;;;;;;5040868;28;20459;-82
2022/01/01 09:59:38;;;;;;;4.63;2.50;;;15.10;99.90;;;;;;5038879;28;20457;-80
2022/01/01 10:02:05;;;;;;;6.40;2.43;;;15.30;99.90;;;;;;5037004;28;20453;-78
2022/01/01 10:04:42;;;;;;;7.10;2.33;;;15.40;99.90;;;;;;5038817;28;20502;-80
2022/01/01 10:07:11;;;;;;;6.40;2.47;;;15.30;99.90;;;;;;5038397;28;20437;-78
2022/01/01 10:09:39;;;;;;;7.20;2.10;;;15.30;99.90;;;;;;5048077;28;20456;-78
2022/01/01 10:12:09;;;;;;;6.87;2.40;;;15.30;99.90;;;;;;5067068;28;20454;-80
2022/01/01 10:14:37;;;;;;;7.83;2.23;;;15.20;99.90;;;;;;5053420;28;21202;-79
2022/01/01 10:17:25;;;;;;;8.43;2.27;;;15.40;99.90;;;;;;5037129;28;20531;-79
2022/01/01 10:19:54;;;;;;;5.17;2.10;;;15.30;99.90;;;;;;5037869;28;20896;-79
2022/01/01 10:22:24;;;;;;;5.23;2.17;;;15.50;99.90;;;;;;5025926;28;20459;-79
2022/01/01 10:27:54;;;;;;;7.07;1.90;;;15.70;99.90;;;;;;5033986;28;20449;-80
2022/01/01 10:30:24;;;;;;;6.83;3.10;;;15.60;99.90;;;;;;5042078;28;20458;-79
2022/01/01 10:33:09;;;;;;;7.37;2.40;;;15.60;99.90;;;;;;5045775;28;20452;-79
2022/01/01 10:35:42;;;;;;;7.00;2.07;;;15.70;99.90;;;;;;5047723;28;20844;-79
2022/01/01 10:38:16;;;;;;;3.63;1.90;;;15.80;99.90;;;;;;5036138;28;20463;-79
2022/01/01 10:40:44;;;;;;;7.50;2.00;;;15.80;99.90;;;;;;5039864;28;20459;-80
2022/01/01 10:43:11;;;;;;;5.03;2.10;;;16.00;99.90;;;;;;5039702;28;20509;-81
2022/01/01 10:45:40;;;;;;;6.77;1.93;;;16.00;99.90;;;;;;5036633;28;20956;-80
2022/01/01 10:48:16;;;;;;;7.60;2.00;;;16.20;99.90;;;;;;5038863;28;20892;-80
2022/01/01 10:50:43;;;;;;;11.90;2.63;;;16.50;99.90;;;;;;5028831;28;20454;-82
2022/01/01 10:53:13;;;;;;;5.73;1.93;;;16.40;99.90;;;;;;5038296;28;20454;-82
2022/01/01 10:55:45;;;;;;;7.47;2.03;;;16.40;99.90;;;;;;5034478;28;20505;-82
2022/01/01 10:58:18;;;;;;;11.77;3.43;;;16.50;99.90;;;;;;5030720;28;20456;-81
2022/01/01 11:00:46;;;;;;;5.90;2.27;;;16.50;99.90;;;;;;5026022;28;20828;-79
2022/01/01 11:03:16;;;;;;;7.77;2.23;;;16.40;99.90;;;;;;5036258;28;20475;-82
2022/01/01 11:05:44;;;;;;;5.60;2.47;;;16.70;99.90;;;;;;5036049;28;20456;-81
2022/01/01 11:08:13;;;;;;;6.23;1.80;;;16.80;99.90;;;;;;5036489;28;20830;-82
2022/01/01 11:10:41;;;;;;;4.53;2.00;;;17.10;99.90;;;;;;5035404;28;20455;-81
2022/01/01 11:13:10;;;;;;;5.80;2.17;;;17.30;99.90;;;;;;5039644;28;20459;-78
2022/01/01 11:15:36;;;;;;;5.77;1.63;;;17.20;99.90;;;;;;5037712;28;20484;-81
2022/01/01 11:18:04;;;;;;;8.03;2.10;;;17.10;99.90;;;;;;5038578;28;20459;-81
2022/01/01 11:20:34;;;;;;;7.03;1.97;;;17.20;99.90;;;;;;5037777;28;20460;-80
2022/01/01 11:23:04;;;;;;;6.87;2.07;;;17.10;99.90;;;;;;5040538;28;20440;-81
2022/01/01 11:25:34;;;;;;;3.90;1.50;;;16.80;99.90;;;;;;5040168;28;20875;-80
2022/01/01 11:28:01;;;;;;;5.40;1.87;;;17.00;99.90;;;;;;5022449;28;20453;-81
2022/01/01 11:30:30;;;;;;;5.10;2.17;;;17.00;99.90;;;;;;5041296;28;20457;-81
2022/01/01 11:33:03;;;;;;;6.10;1.70;;;17.20;99.90;;;;;;5054620;28;20501;-80
2022/01/01 11:35:33;;;;;;;5.50;2.00;;;17.30;99.90;;;;;;5039743;28;20501;-83
2022/01/01 11:38:03;;;;;;;9.30;2.90;;;17.50;99.90;;;;;;5045581;28;20940;-81
2022/01/01 11:40:41;;;;;;;8.10;1.80;;;17.40;99.90;;;;;;5041727;28;20452;-80
2022/01/01 11:43:23;;;;;;;7.63;2.07;;;17.50;99.90;;;;;;5041433;28;20527;-82
2022/01/01 11:45:51;;;;;;;4.70;2.00;;;17.60;99.90;;;;;;5034442;28;20459;-82
2022/01/01 11:48:32;;;;;;;4.37;1.97;;;17.30;99.90;;;;;;5029600;28;20449;-78
2022/01/01 11:51:31;;;;;;;7.17;2.20;;;17.10;99.90;;;;;;5034908;28;20457;-79
2022/01/01 11:54:24;;;;;;;3.60;1.90;;;17.20;99.90;;;;;;5041213;28;20952;-79
2022/01/01 11:57:10;;;;;;;3.60;1.80;;;17.60;99.90;;;;;;5039230;28;20480;-79
2022/01/01 11:59:46;;;;;;;5.57;1.77;;;17.80;99.90;;;;;;5044647;28;20523;-81
2022/01/01 12:02:33;;;;;;;6.03;2.00;;;18.20;99.90;;;;;;5034168;28;20460;-81
2022/01/01 12:05:19;;;;;;;4.27;1.70;;;18.40;99.90;;;;;;5038439;28;20832;-80
2022/01/01 12:07:49;;;;;;;6.00;1.87;;;18.90;99.90;;;;;;5044425;28;21343;-81
2022/01/01 12:10:32;;;;;;;7.33;2.10;;;19.40;99.90;;;;;;5040957;28;20456;-80
2022/01/01 12:13:02;;;;;;;3.17;1.40;;;19.60;99.90;;;;;;5041766;28;20488;-82
2022/01/01 12:15:48;;;;;;;5.13;2.20;;;18.40;99.90;;;;;;5037867;28;20523;-80
2022/01/01 12:18:18;;;;;;;6.20;2.10;;;18.50;99.90;;;;;;5034597;28;20538;-82
2022/01/01 12:20:50;;;;;;;6.37;2.03;;;18.30;99.90;;;;;;5039766;28;20454;-82
2022/01/01 12:23:18;;;;;;;6.07;1.83;;;18.30;99.90;;;;;;5036378;28;20576;-81
2022/01/01 12:25:46;;;;;;;3.77;1.37;;;18.30;99.90;;;;;;5040000;28;20478;-80
2022/01/01 12:28:18;;;;;;;3.93;1.70;;;18.30;99.90;;;;;;5039515;28;20535;-81
2022/01/01 12:30:47;;;;;;;4.80;1.70;;;18.10;99.90;;;;;;5039199;28;20497;-82
2022/01/01 12:33:25;;;;;;;5.93;1.90;;;17.90;99.90;;;;;;5040833;28;20506;-80
2022/01/01 12:35:54;;;;;;;3.63;1.60;;;17.90;99.90;;;;;;5041028;28;20594;-80
2022/01/01 12:38:23;;;;;;;4.50;2.13;;;18.10;99.90;;;;;;5041753;28;21027;-81
2022/01/01 12:41:06;;;;;;;4.03;1.50;;;17.60;99.90;;;;;;5041368;28;20521;-79
2022/01/01 12:43:43;;;;;;;6.10;1.87;;;17.10;99.90;;;;;;5036813;28;20838;-82
2022/01/01 12:46:13;;;;;;;3.80;1.73;;;17.20;99.90;;;;;;5045878;28;20464;-81
2022/01/01 12:48:40;;;;;;;6.10;2.17;;;17.30;99.90;;;;;;5042769;28;20459;-79
2022/01/01 12:51:10;;;;;;;4.07;1.50;;;17.00;99.90;;;;;;5052554;28;20473;-82